Terminal Aerodrome Forecast
Issued by NWS

Home | Current Version | Previous Version | Text Only | Print | Product List | Glossary On
Versions: 1 2 3 4 5 6 7 8 9 10 11 12
518
FTUS42 KMLB 291138
TAFTIX
TAF
KTIX 291138Z 2912/3012 VRB02KT P6SM FEW035
     FM291400 31006KT P6SM SCT035
     FM291600 VRB04KT P6SM VCSH SCT040
     FM291700 08008KT P6SM VCSH SCT040
     FM300200 00000KT P6SM SKC=

USA.gov is the U.S. government's official web portal to all federal, state and local government web resources and services.